createdAt,value
2023-05-07T00:00:20.144Z,10.30
2023-05-07T00:01:20.341Z,10.25
2023-05-07T00:02:20.266Z,10.21
2023-05-07T00:03:20.228Z,10.21
2023-05-07T00:04:20.152Z,10.21
2023-05-07T00:05:20.166Z,10.21
2023-05-07T00:06:20.008Z,10.22
2023-05-07T00:07:19.963Z,10.25
2023-05-07T00:08:19.989Z,10.28
2023-05-07T00:09:19.978Z,10.30
2023-05-07T00:10:20.045Z,10.26
2023-05-07T00:11:19.949Z,10.24
2023-05-07T00:12:19.930Z,10.21
2023-05-07T00:13:19.990Z,10.17
2023-05-07T00:14:19.902Z,10.17
2023-05-07T00:15:19.936Z,10.19
2023-05-07T00:16:26.500Z,10.17
2023-05-07T00:17:19.856Z,10.18
2023-05-07T00:18:19.828Z,10.18
2023-05-07T00:19:19.835Z,10.14
2023-05-07T00:20:19.832Z,10.09
2023-05-07T00:21:19.803Z,10.09
2023-05-07T00:22:19.797Z,10.10
2023-05-07T00:23:19.785Z,10.12
2023-05-07T00:24:19.763Z,10.12
2023-05-07T00:25:19.772Z,10.12
2023-05-07T00:26:19.743Z,10.14
2023-05-07T00:27:19.744Z,10.15
2023-05-07T00:28:19.726Z,10.14
2023-05-07T00:29:19.712Z,10.12
2023-05-07T00:30:19.720Z,10.14
2023-05-07T00:31:19.728Z,10.15
2023-05-07T00:32:19.685Z,10.17
2023-05-07T00:33:19.673Z,10.15
2023-05-07T00:34:19.655Z,10.17
2023-05-07T00:35:19.676Z,10.14
2023-05-07T00:36:19.641Z,10.10
2023-05-07T00:37:19.621Z,10.14
2023-05-07T00:38:19.616Z,10.12
2023-05-07T00:39:19.608Z,10.14
2023-05-07T00:40:19.608Z,10.12
2023-05-07T00:41:19.591Z,10.14
2023-05-07T00:42:19.571Z,10.14
2023-05-07T00:43:19.569Z,10.14
2023-05-07T00:44:19.549Z,10.15
2023-05-07T00:45:19.558Z,10.17
2023-05-07T00:46:19.553Z,10.19
2023-05-07T00:47:19.512Z,10.18
2023-05-07T00:48:19.511Z,10.17
2023-05-07T00:49:19.552Z,10.17
2023-05-07T00:50:19.592Z,10.15
2023-05-07T00:51:19.469Z,10.14
2023-05-07T00:52:19.459Z,10.12
2023-05-07T00:53:19.456Z,10.10
2023-05-07T00:54:19.436Z,10.07
2023-05-07T00:55:19.447Z,10.07
2023-05-07T00:56:19.414Z,10.09
2023-05-07T00:57:19.412Z,10.10
2023-05-07T00:58:19.403Z,10.15
2023-05-07T00:59:19.401Z,10.15
2023-05-07T01:00:19.393Z,10.10
2023-05-07T01:01:19.432Z,10.14
2023-05-07T01:02:19.413Z,10.14
2023-05-07T01:03:19.339Z,10.07
2023-05-07T01:04:19.399Z,10.07
2023-05-07T01:05:19.337Z,10.09
2023-05-07T01:06:19.312Z,10.09
2023-05-07T01:07:19.300Z,10.06
2023-05-07T01:08:19.280Z,10.07
2023-05-07T01:09:19.272Z,10.04
2023-05-07T01:10:19.275Z,10.06
2023-05-07T01:11:19.254Z,10.03
2023-05-07T01:12:19.240Z,10.03
2023-05-07T01:13:19.392Z,10.03
2023-05-07T01:14:19.234Z,10.04
2023-05-07T01:15:19.234Z,10.07
2023-05-07T01:16:19.198Z,10.06
2023-05-07T01:17:19.275Z,10.06
2023-05-07T01:18:19.182Z,10.10
2023-05-07T01:19:19.178Z,10.07
2023-05-07T01:20:19.170Z,10.09
2023-05-07T01:21:19.150Z,10.09
2023-05-07T01:22:19.132Z,10.10
2023-05-07T01:23:19.118Z,10.10
2023-05-07T01:24:19.114Z,10.09
2023-05-07T01:25:19.124Z,10.07
2023-05-07T01:26:19.110Z,10.04
2023-05-07T01:27:19.071Z,10.04
2023-05-07T01:28:19.064Z,10.06
2023-05-07T01:29:19.056Z,10.06
2023-05-07T01:30:19.056Z,10.03
2023-05-07T01:31:19.045Z,9.99
2023-05-07T01:32:19.015Z,10.01
2023-05-07T01:33:19.024Z,10.00
2023-05-07T01:34:19.001Z,10.01
2023-05-07T01:35:18.999Z,10.00
2023-05-07T01:36:19.000Z,10.01
2023-05-07T01:37:18.963Z,10.04
2023-05-07T01:38:18.950Z,10.06
2023-05-07T01:39:18.945Z,10.03
2023-05-07T01:40:18.941Z,10.03
2023-05-07T01:41:18.939Z,10.01
2023-05-07T01:42:18.917Z,10.03
2023-05-07T01:43:18.908Z,10.04
2023-05-07T01:44:18.888Z,10.03
2023-05-07T01:45:18.875Z,10.01
2023-05-07T01:46:18.911Z,10.03
2023-05-07T01:47:18.876Z,10.01
2023-05-07T01:48:18.858Z,10.03
2023-05-07T01:49:18.832Z,10.01
2023-05-07T01:50:18.822Z,9.99
2023-05-07T01:51:18.823Z,10.00
2023-05-07T01:52:18.821Z,10.03
2023-05-07T01:53:18.795Z,10.06
2023-05-07T01:54:18.777Z,10.01
2023-05-07T01:55:18.766Z,10.00
2023-05-07T01:56:18.769Z,9.97
2023-05-07T01:57:18.753Z,9.97
2023-05-07T01:58:18.730Z,9.96
2023-05-07T01:59:18.717Z,9.99
2023-05-07T02:00:18.698Z,10.00
2023-05-07T02:01:18.733Z,9.99
2023-05-07T02:02:18.701Z,9.97
2023-05-07T02:03:18.761Z,9.99
2023-05-07T02:04:18.669Z,10.03
2023-05-07T02:05:18.670Z,10.04
2023-05-07T02:06:18.668Z,10.04
2023-05-07T02:07:18.634Z,10.06
2023-05-07T02:08:18.616Z,10.07
2023-05-07T02:09:18.882Z,10.07
2023-05-07T02:10:18.599Z,10.06
2023-05-07T02:11:18.609Z,10.06
2023-05-07T02:12:18.586Z,10.03
2023-05-07T02:13:18.747Z,10.03
2023-05-07T02:14:18.557Z,9.99
2023-05-07T02:15:18.537Z,9.97
2023-05-07T02:16:18.606Z,9.99
2023-05-07T02:17:18.528Z,10.00
2023-05-07T02:18:18.511Z,10.01
2023-05-07T02:19:18.744Z,10.03
2023-05-07T02:20:18.504Z,10.03
2023-05-07T02:21:18.502Z,10.03
2023-05-07T02:22:18.466Z,10.04
2023-05-07T02:23:18.460Z,10.07
2023-05-07T02:24:18.460Z,10.07
2023-05-07T02:25:18.442Z,10.06
2023-05-07T02:26:18.442Z,10.06
2023-05-07T02:27:18.420Z,10.03
2023-05-07T02:28:18.401Z,10.03
2023-05-07T02:29:18.388Z,10.03
2023-05-07T02:30:18.392Z,10.00
2023-05-07T02:31:18.422Z,10.01
2023-05-07T02:32:18.401Z,10.03
2023-05-07T02:33:18.363Z,10.01
2023-05-07T02:34:18.341Z,9.99
2023-05-07T02:35:18.348Z,9.96
2023-05-07T02:36:18.332Z,9.96
2023-05-07T02:37:18.311Z,9.96
2023-05-07T02:38:18.341Z,9.96
2023-05-07T02:39:18.281Z,9.97
2023-05-07T02:40:18.289Z,9.96
2023-05-07T02:41:18.281Z,9.96
2023-05-07T02:42:18.247Z,9.97
2023-05-07T02:43:18.241Z,9.99
2023-05-07T02:44:18.258Z,9.97
2023-05-07T02:45:18.219Z,9.94
2023-05-07T02:46:18.291Z,9.96
2023-05-07T02:47:18.204Z,9.97
2023-05-07T02:48:18.184Z,9.99
2023-05-07T02:49:18.180Z,10.00
2023-05-07T02:50:18.165Z,10.03
2023-05-07T02:51:18.167Z,10.04
2023-05-07T02:52:18.141Z,10.06
2023-05-07T02:53:18.134Z,10.06
2023-05-07T02:54:18.124Z,10.06
2023-05-07T02:55:18.118Z,10.06
2023-05-07T02:56:18.098Z,10.07
2023-05-07T02:57:18.098Z,10.09
2023-05-07T02:58:18.088Z,10.09
2023-05-07T02:59:18.072Z,10.09
2023-05-07T03:00:18.052Z,10.09
2023-05-07T03:01:18.071Z,10.07
2023-05-07T03:02:22.075Z,10.07
2023-05-07T03:03:18.082Z,10.07
2023-05-07T03:04:18.101Z,10.03
2023-05-07T03:05:18.027Z,10.04
2023-05-07T03:06:17.994Z,10.04
2023-05-07T03:07:17.987Z,10.06
2023-05-07T03:08:17.969Z,10.09
2023-05-07T03:09:17.960Z,10.07
2023-05-07T03:10:17.945Z,10.07
2023-05-07T03:11:17.924Z,10.07
2023-05-07T03:12:17.924Z,10.09
2023-05-07T03:13:17.942Z,10.07
2023-05-07T03:14:17.898Z,10.10
2023-05-07T03:15:17.912Z,10.04
2023-05-07T03:16:17.899Z,10.03
2023-05-07T03:17:17.881Z,10.01
2023-05-07T03:18:17.946Z,10.01
2023-05-07T03:19:17.841Z,10.01
2023-05-07T03:20:17.892Z,10.04
2023-05-07T03:21:17.819Z,10.01
2023-05-07T03:22:17.827Z,10.01
2023-05-07T03:23:17.801Z,10.01
2023-05-07T03:24:17.787Z,10.00
2023-05-07T03:25:17.768Z,9.97
2023-05-07T03:26:17.761Z,9.97
2023-05-07T03:27:17.762Z,9.97
2023-05-07T03:28:17.746Z,9.97
2023-05-07T03:29:17.736Z,9.99
2023-05-07T03:30:17.728Z,9.99
2023-05-07T03:31:17.735Z,10.01
2023-05-07T03:32:17.709Z,9.99
2023-05-07T03:33:17.689Z,9.97
2023-05-07T03:34:17.678Z,9.94
2023-05-07T03:35:17.676Z,9.93
2023-05-07T03:36:17.650Z,9.94
2023-05-07T03:37:17.651Z,9.96
2023-05-07T03:38:17.623Z,9.97
2023-05-07T03:39:17.614Z,9.93
2023-05-07T03:40:17.602Z,9.94
2023-05-07T03:41:17.592Z,9.94
2023-05-07T03:42:17.608Z,9.94
2023-05-07T03:43:17.574Z,9.89
2023-05-07T03:44:17.570Z,9.89
2023-05-07T03:45:17.561Z,9.88
2023-05-07T03:46:17.591Z,9.88
2023-05-07T03:47:17.549Z,9.91
2023-05-07T03:48:17.516Z,9.91
2023-05-07T03:49:17.505Z,9.93
2023-05-07T03:50:17.496Z,9.93
2023-05-07T03:51:17.501Z,9.94
2023-05-07T03:52:17.494Z,9.96
2023-05-07T03:53:17.463Z,9.97
2023-05-07T03:54:17.456Z,9.99
2023-05-07T03:55:17.468Z,9.97
2023-05-07T03:56:19.137Z,9.97
2023-05-07T03:57:17.438Z,9.97
2023-05-07T03:58:17.417Z,10.00
2023-05-07T03:59:17.403Z,9.97
2023-05-07T04:00:17.384Z,9.94
2023-05-07T04:01:17.380Z,9.91
2023-05-07T04:02:17.413Z,9.91
2023-05-07T04:03:17.429Z,9.91
2023-05-07T04:04:17.572Z,9.93
2023-05-07T04:05:17.340Z,9.96
2023-05-07T04:06:17.309Z,9.94
2023-05-07T04:07:17.339Z,9.91
2023-05-07T04:08:17.298Z,9.93
2023-05-07T04:09:17.299Z,9.94
2023-05-07T04:10:17.280Z,9.97
2023-05-07T04:11:17.290Z,10.00
2023-05-07T04:12:17.296Z,10.01
2023-05-07T04:13:17.295Z,9.97
2023-05-07T04:14:17.229Z,9.96
2023-05-07T04:15:17.234Z,9.94
2023-05-07T04:16:17.229Z,9.96
2023-05-07T04:17:17.226Z,9.97
2023-05-07T04:18:17.189Z,9.97
2023-05-07T04:19:17.169Z,9.99
2023-05-07T04:20:17.175Z,10.00
2023-05-07T04:21:17.164Z,9.99
2023-05-07T04:22:17.179Z,10.00
2023-05-07T04:23:17.141Z,10.00
2023-05-07T04:24:17.127Z,10.00
2023-05-07T04:25:17.146Z,10.03
2023-05-07T04:26:17.123Z,10.04
2023-05-07T04:27:17.122Z,10.06
2023-05-07T04:28:17.094Z,10.07
2023-05-07T04:29:17.072Z,10.07
2023-05-07T04:30:17.061Z,10.12
2023-05-07T04:31:17.090Z,10.12
2023-05-07T04:32:17.108Z,10.14
2023-05-07T04:33:17.030Z,10.14
2023-05-07T04:34:17.018Z,10.14
2023-05-07T04:35:17.017Z,10.15
2023-05-07T04:36:16.990Z,10.15
2023-05-07T04:37:16.994Z,10.17
2023-05-07T04:38:16.969Z,10.12
2023-05-07T04:39:16.964Z,10.15
2023-05-07T04:40:16.953Z,10.17
2023-05-07T04:41:16.934Z,10.15
2023-05-07T04:42:16.973Z,10.15
2023-05-07T04:43:16.915Z,10.14
2023-05-07T04:44:16.909Z,10.18
2023-05-07T04:45:16.891Z,10.19
2023-05-07T04:46:16.928Z,10.19
2023-05-07T04:47:16.896Z,10.21
2023-05-07T04:48:16.848Z,10.21
2023-05-07T04:49:16.846Z,10.21
2023-05-07T04:50:16.850Z,10.21
2023-05-07T04:51:16.861Z,10.21
2023-05-07T04:52:16.822Z,10.24
2023-05-07T04:53:16.802Z,10.26
2023-05-07T04:54:16.791Z,10.28
2023-05-07T04:55:16.784Z,10.30
2023-05-07T04:56:16.765Z,10.30
2023-05-07T04:57:16.756Z,10.30
2023-05-07T04:58:16.755Z,10.32
2023-05-07T04:59:16.740Z,10.34
2023-05-07T05:00:16.721Z,10.34
2023-05-07T05:01:16.820Z,10.37
2023-05-07T05:02:18.761Z,10.40
2023-05-07T05:03:16.776Z,10.42
2023-05-07T05:04:16.682Z,10.40
2023-05-07T05:05:16.731Z,10.42
2023-05-07T05:06:16.660Z,10.42
2023-05-07T05:07:16.639Z,10.40
2023-05-07T05:08:16.653Z,10.42
2023-05-07T05:09:16.626Z,10.43
2023-05-07T05:10:16.614Z,10.37
2023-05-07T05:11:16.605Z,10.34
2023-05-07T05:12:16.596Z,10.36
2023-05-07T05:13:16.705Z,10.36
2023-05-07T05:14:16.573Z,10.34
2023-05-07T05:15:16.567Z,10.32
2023-05-07T05:16:16.653Z,10.30
2023-05-07T05:17:16.541Z,10.32
2023-05-07T05:18:16.546Z,10.34
2023-05-07T05:19:16.524Z,10.34
2023-05-07T05:20:16.500Z,10.39
2023-05-07T05:21:16.499Z,10.36
2023-05-07T05:22:16.489Z,10.36
2023-05-07T05:23:16.511Z,10.37
2023-05-07T05:24:16.477Z,10.39
2023-05-07T05:25:16.459Z,10.40
2023-05-07T05:26:16.445Z,10.42
2023-05-07T05:27:16.453Z,10.42
2023-05-07T05:28:16.435Z,10.40
2023-05-07T05:29:16.415Z,10.33
2023-05-07T05:30:16.426Z,10.33
2023-05-07T05:31:16.441Z,10.33
2023-05-07T05:32:16.378Z,10.36
2023-05-07T05:33:16.377Z,10.40
2023-05-07T05:34:16.357Z,10.40
2023-05-07T05:35:16.362Z,10.43
2023-05-07T05:36:16.333Z,10.46
2023-05-07T05:37:16.354Z,10.51
2023-05-07T05:38:16.325Z,10.44
2023-05-07T05:39:16.297Z,10.40
2023-05-07T05:40:16.288Z,10.39
2023-05-07T05:41:16.283Z,10.37
2023-05-07T05:42:16.259Z,10.36
2023-05-07T05:43:16.275Z,10.36
2023-05-07T05:44:16.244Z,10.37
2023-05-07T05:45:16.233Z,10.37
2023-05-07T05:46:16.272Z,10.39
2023-05-07T05:47:16.220Z,10.37
2023-05-07T05:48:16.294Z,10.40
2023-05-07T05:49:16.197Z,10.44
2023-05-07T05:50:16.206Z,10.46
2023-05-07T05:51:16.170Z,10.44
2023-05-07T05:52:16.166Z,10.44
2023-05-07T05:53:16.160Z,10.44
2023-05-07T05:54:16.172Z,10.46
2023-05-07T05:55:16.119Z,10.51
2023-05-07T05:56:16.110Z,10.44
2023-05-07T05:57:16.098Z,10.51
2023-05-07T05:58:16.106Z,10.53
2023-05-07T05:59:16.143Z,10.56
2023-05-07T06:00:16.074Z,10.60
2023-05-07T06:01:16.059Z,10.62
2023-05-07T06:02:16.186Z,10.62
2023-05-07T06:03:16.102Z,10.65
2023-05-07T06:04:16.019Z,10.65
2023-05-07T06:05:16.085Z,10.66
2023-05-07T06:06:16.002Z,10.70
2023-05-07T06:07:15.995Z,10.71
2023-05-07T06:08:15.995Z,10.74
2023-05-07T06:09:15.968Z,10.77
2023-05-07T06:10:15.959Z,10.77
2023-05-07T06:11:15.954Z,10.76
2023-05-07T06:12:15.930Z,10.74
2023-05-07T06:13:16.001Z,10.76
2023-05-07T06:14:15.908Z,10.76
2023-05-07T06:15:15.901Z,10.77
2023-05-07T06:16:15.915Z,10.78
2023-05-07T06:17:15.872Z,10.80
2023-05-07T06:18:15.887Z,10.73
2023-05-07T06:19:15.874Z,10.71
2023-05-07T06:20:15.853Z,10.66
2023-05-07T06:21:15.838Z,10.63
2023-05-07T06:22:15.827Z,10.66
2023-05-07T06:23:17.803Z,10.70
2023-05-07T06:24:15.801Z,10.73
2023-05-07T06:25:15.782Z,10.76
2023-05-07T06:26:15.786Z,10.78
2023-05-07T06:27:15.783Z,10.83
2023-05-07T06:28:15.768Z,10.86
2023-05-07T06:29:15.759Z,10.91
2023-05-07T06:30:15.734Z,10.92
2023-05-07T06:31:15.782Z,10.94
2023-05-07T06:32:15.760Z,10.91
2023-05-07T06:33:15.746Z,10.91
2023-05-07T06:34:15.698Z,10.89
2023-05-07T06:35:15.689Z,10.92
2023-05-07T06:36:15.698Z,10.95
2023-05-07T06:37:15.668Z,10.99
2023-05-07T06:38:15.658Z,11.01
2023-05-07T06:39:15.653Z,10.92
2023-05-07T06:40:15.636Z,10.91
2023-05-07T06:41:15.627Z,10.94
2023-05-07T06:42:15.611Z,10.94
2023-05-07T06:43:15.624Z,10.92
2023-05-07T06:44:15.589Z,10.95
2023-05-07T06:45:15.577Z,10.98
2023-05-07T06:46:15.578Z,11.03
2023-05-07T06:47:16.497Z,11.03
2023-05-07T06:48:15.575Z,11.02
2023-05-07T06:49:15.539Z,11.06
2023-05-07T06:50:15.529Z,11.09
2023-05-07T06:51:15.518Z,11.10
2023-05-07T06:52:15.507Z,11.06
2023-05-07T06:53:15.511Z,11.07
2023-05-07T06:54:15.491Z,11.09
2023-05-07T06:55:15.480Z,11.13
2023-05-07T06:56:15.469Z,11.16
2023-05-07T06:57:15.455Z,11.21
2023-05-07T06:58:15.459Z,11.28
2023-05-07T06:59:15.430Z,11.28
2023-05-07T07:00:15.421Z,11.34
2023-05-07T07:01:15.426Z,11.35
2023-05-07T07:02:18.110Z,11.36
2023-05-07T07:03:15.407Z,11.41
2023-05-07T07:04:15.404Z,11.43
2023-05-07T07:05:15.362Z,11.41
2023-05-07T07:06:15.361Z,11.46
2023-05-07T07:07:15.331Z,11.46
2023-05-07T07:08:15.342Z,11.47
2023-05-07T07:09:15.324Z,11.46
2023-05-07T07:10:15.299Z,11.44
2023-05-07T07:11:15.298Z,11.46
2023-05-07T07:12:15.283Z,11.41
2023-05-07T07:13:15.340Z,11.46
2023-05-07T07:14:15.261Z,11.44
2023-05-07T07:15:15.274Z,11.43
2023-05-07T07:16:15.284Z,11.41
2023-05-07T07:17:15.229Z,11.44
2023-05-07T07:18:15.239Z,11.49
2023-05-07T07:19:15.205Z,11.53
2023-05-07T07:20:15.502Z,11.56
2023-05-07T07:21:15.189Z,11.59
2023-05-07T07:22:15.170Z,11.65
2023-05-07T07:23:15.188Z,11.57
2023-05-07T07:24:15.170Z,11.57
2023-05-07T07:25:15.165Z,11.64
2023-05-07T07:26:15.149Z,11.68
2023-05-07T07:27:15.130Z,11.74
2023-05-07T07:28:15.133Z,11.77
2023-05-07T07:29:15.102Z,11.85
2023-05-07T07:30:15.092Z,11.86
2023-05-07T07:31:15.171Z,11.85
2023-05-07T07:32:15.189Z,11.89
2023-05-07T07:33:15.072Z,11.93
2023-05-07T07:34:15.042Z,11.78
2023-05-07T07:35:15.040Z,11.77
2023-05-07T07:36:15.024Z,11.83
2023-05-07T07:37:15.014Z,11.87
2023-05-07T07:38:15.013Z,11.86
2023-05-07T07:39:14.995Z,11.82
2023-05-07T07:40:14.993Z,11.83
2023-05-07T07:41:14.972Z,11.89
2023-05-07T07:42:14.983Z,11.97
2023-05-07T07:43:14.988Z,12.04
2023-05-07T07:44:16.433Z,12.04
2023-05-07T07:45:14.930Z,12.06
2023-05-07T07:46:14.919Z,12.08
2023-05-07T07:47:14.924Z,12.13
2023-05-07T07:48:14.937Z,12.15
2023-05-07T07:49:14.875Z,12.21
2023-05-07T07:50:22.001Z,12.21
2023-05-07T07:51:14.854Z,12.23
2023-05-07T07:52:14.848Z,12.26
2023-05-07T07:53:14.848Z,12.30
2023-05-07T07:54:14.822Z,12.37
2023-05-07T07:55:14.805Z,12.31
2023-05-07T07:56:14.799Z,12.30
2023-05-07T07:57:14.795Z,12.26
2023-05-07T07:58:14.804Z,12.09
2023-05-07T07:59:14.787Z,12.11
2023-05-07T08:00:14.755Z,12.16
2023-05-07T08:01:14.737Z,12.19
2023-05-07T08:02:14.759Z,12.23
2023-05-07T08:03:14.804Z,12.27
2023-05-07T08:04:14.751Z,12.31
2023-05-07T08:05:14.697Z,12.26
2023-05-07T08:06:15.260Z,12.26
2023-05-07T08:07:14.672Z,12.26
2023-05-07T08:08:14.683Z,12.27
2023-05-07T08:09:14.650Z,12.30
2023-05-07T08:10:14.637Z,12.27
2023-05-07T08:11:14.635Z,12.30
2023-05-07T08:12:14.615Z,12.29
2023-05-07T08:13:14.685Z,12.31
2023-05-07T08:14:14.602Z,12.33
2023-05-07T08:15:14.592Z,12.37
2023-05-07T08:16:14.618Z,12.41
2023-05-07T08:17:14.637Z,12.44
2023-05-07T08:18:14.624Z,12.48
2023-05-07T08:19:14.572Z,12.52
2023-05-07T08:20:14.665Z,12.51
2023-05-07T08:21:14.532Z,12.52
2023-05-07T08:22:14.515Z,12.56
2023-05-07T08:23:14.558Z,12.57
2023-05-07T08:24:14.502Z,12.59
2023-05-07T08:25:14.487Z,12.62
2023-05-07T08:26:14.490Z,12.62
2023-05-07T08:27:14.461Z,12.60
2023-05-07T08:28:14.470Z,12.62
2023-05-07T08:29:14.441Z,12.66
2023-05-07T08:30:14.434Z,12.70
2023-05-07T08:31:14.444Z,12.74
2023-05-07T08:32:14.400Z,12.69
2023-05-07T08:33:14.424Z,12.69
2023-05-07T08:34:14.381Z,12.69
2023-05-07T08:35:14.375Z,12.66
2023-05-07T08:36:14.372Z,12.67
2023-05-07T08:37:14.349Z,12.69
2023-05-07T08:38:14.375Z,12.77
2023-05-07T08:39:14.338Z,12.82
2023-05-07T08:40:14.809Z,12.85
2023-05-07T08:41:14.325Z,12.85
2023-05-07T08:42:14.296Z,12.88
2023-05-07T08:43:14.318Z,12.89
2023-05-07T08:44:14.277Z,12.93
2023-05-07T08:45:14.261Z,12.96
2023-05-07T08:46:14.296Z,12.93
2023-05-07T08:47:14.247Z,12.89
2023-05-07T08:48:14.259Z,12.89
2023-05-07T08:49:14.220Z,12.88
2023-05-07T08:50:14.279Z,12.92
2023-05-07T08:51:14.188Z,12.92
2023-05-07T08:52:14.190Z,12.93
2023-05-07T08:53:14.182Z,12.96
2023-05-07T08:54:14.170Z,12.99
2023-05-07T08:55:14.469Z,12.85
2023-05-07T08:56:14.137Z,12.77
2023-05-07T08:57:14.124Z,12.75
2023-05-07T08:58:14.141Z,12.77
2023-05-07T08:59:14.107Z,12.81
2023-05-07T09:00:14.094Z,12.84
2023-05-07T09:01:14.242Z,12.87
2023-05-07T09:02:14.109Z,12.85
2023-05-07T09:03:14.265Z,12.85
2023-05-07T09:04:14.331Z,12.71
2023-05-07T09:05:14.118Z,12.74
2023-05-07T09:06:14.044Z,12.74
2023-05-07T09:07:14.021Z,12.79
2023-05-07T09:08:14.041Z,12.84
2023-05-07T09:09:13.994Z,12.89
2023-05-07T09:10:14.092Z,12.96
2023-05-07T09:11:13.985Z,13.02
2023-05-07T09:12:13.973Z,13.12
2023-05-07T09:13:14.041Z,13.22
2023-05-07T09:14:13.949Z,13.32
2023-05-07T09:15:14.057Z,13.44
2023-05-07T09:16:13.938Z,13.52
2023-05-07T09:17:13.918Z,13.59
2023-05-07T09:19:13.888Z,13.73
2023-05-07T09:20:13.882Z,13.80
2023-05-07T09:21:13.860Z,13.79
2023-05-07T09:22:13.859Z,13.74
2023-05-07T09:23:13.864Z,13.70
2023-05-07T09:24:13.830Z,13.71
2023-05-07T09:25:14.122Z,13.79
2023-05-07T09:26:13.808Z,13.87
2023-05-07T09:27:13.800Z,13.84
2023-05-07T09:28:13.807Z,13.87
2023-05-07T09:29:13.777Z,13.92
2023-05-07T09:30:13.783Z,13.87
2023-05-07T09:31:13.798Z,13.80
2023-05-07T09:32:13.754Z,13.84
2023-05-07T09:33:13.848Z,13.91
2023-05-07T09:34:13.730Z,13.95
2023-05-07T09:35:13.749Z,13.88
2023-05-07T09:36:13.701Z,13.84
2023-05-07T09:37:13.697Z,13.87
2023-05-07T09:38:13.706Z,13.94
2023-05-07T09:39:13.667Z,14.04
2023-05-07T09:40:13.674Z,14.13
2023-05-07T09:41:13.647Z,14.14
2023-05-07T09:42:13.633Z,14.21
2023-05-07T09:43:13.644Z,14.27
2023-05-07T09:44:13.629Z,14.20
2023-05-07T09:45:13.713Z,14.28
2023-05-07T09:46:13.745Z,14.39
2023-05-07T09:47:13.579Z,14.56
2023-05-07T09:48:13.575Z,14.54
2023-05-07T09:49:13.601Z,14.67
2023-05-07T09:50:13.552Z,14.80
2023-05-07T09:51:13.540Z,14.86
2023-05-07T09:52:13.531Z,14.90
2023-05-07T09:53:13.518Z,14.93
2023-05-07T09:54:13.515Z,14.98
2023-05-07T09:55:13.613Z,15.03
2023-05-07T09:56:13.501Z,15.06
2023-05-07T09:57:13.506Z,14.93
2023-05-07T09:58:13.474Z,14.95
2023-05-07T09:59:13.519Z,14.91
2023-05-07T10:00:13.460Z,14.80
2023-05-07T10:01:13.508Z,14.69
2023-05-07T10:02:13.433Z,14.71
2023-05-07T10:03:13.488Z,14.84
2023-05-07T10:04:13.421Z,14.87
2023-05-07T10:05:13.483Z,14.93
2023-05-07T10:06:13.366Z,14.95
2023-05-07T10:07:13.367Z,14.86
2023-05-07T10:08:13.363Z,14.83
2023-05-07T10:09:13.373Z,14.83
2023-05-07T10:10:13.336Z,14.78
2023-05-07T10:11:13.313Z,14.86
2023-05-07T10:12:13.307Z,14.94
2023-05-07T10:13:13.343Z,14.99
2023-05-07T10:14:13.307Z,14.95
2023-05-07T10:15:13.570Z,14.91
2023-05-07T10:16:13.261Z,15.02
2023-05-07T10:17:13.292Z,15.09
2023-05-07T10:18:13.437Z,15.17
2023-05-07T10:19:13.297Z,15.24
2023-05-07T10:20:13.219Z,15.27
2023-05-07T10:21:13.214Z,15.31
2023-05-07T10:22:13.195Z,15.24
2023-05-07T10:23:13.193Z,15.15
2023-05-07T10:24:13.198Z,15.08
2023-05-07T10:25:13.503Z,14.88
2023-05-07T10:26:13.171Z,14.75
2023-05-07T10:27:13.143Z,14.72
2023-05-07T10:28:13.142Z,14.75
2023-05-07T10:29:13.140Z,14.75
2023-05-07T10:30:13.117Z,14.74
2023-05-07T10:31:13.145Z,14.75
2023-05-07T10:32:13.107Z,14.80
2023-05-07T10:33:13.132Z,14.72
2023-05-07T10:34:13.086Z,14.71
2023-05-07T10:35:13.201Z,14.69
2023-05-07T10:36:13.054Z,14.80
2023-05-07T10:37:13.044Z,14.88
2023-05-07T10:38:13.032Z,15.02
2023-05-07T10:39:13.035Z,15.03
2023-05-07T10:40:13.010Z,15.06
2023-05-07T10:41:13.106Z,15.02
2023-05-07T10:42:13.044Z,14.98
2023-05-07T10:43:12.994Z,15.05
2023-05-07T10:44:12.985Z,15.13
2023-05-07T10:45:12.976Z,15.17
2023-05-07T10:46:13.025Z,15.20
2023-05-07T10:47:12.963Z,15.20
2023-05-07T10:49:11.926Z,15.11
2023-05-07T10:50:12.957Z,14.99
2023-05-07T10:51:12.888Z,14.93
2023-05-07T10:52:12.881Z,14.94
2023-05-07T10:53:12.872Z,14.94
2023-05-07T10:54:12.883Z,14.86
2023-05-07T10:55:12.992Z,14.75
2023-05-07T10:56:12.850Z,14.81
2023-05-07T10:57:12.827Z,14.78
2023-05-07T10:58:23.578Z,14.61
2023-05-07T10:59:12.813Z,14.57
2023-05-07T11:00:12.872Z,14.60
2023-05-07T11:01:12.824Z,14.61
2023-05-07T11:02:12.945Z,14.64
2023-05-07T11:03:12.838Z,14.67
2023-05-07T11:04:12.764Z,14.69
2023-05-07T11:05:12.969Z,14.54
2023-05-07T11:06:12.753Z,14.52
2023-05-07T11:07:12.742Z,14.52
2023-05-07T11:08:12.712Z,14.47
2023-05-07T11:09:12.735Z,14.50
2023-05-07T11:10:12.734Z,14.61
2023-05-07T11:11:12.682Z,14.64
2023-05-07T11:12:12.671Z,14.68
2023-05-07T11:13:12.682Z,14.74
2023-05-07T11:14:12.662Z,14.81
2023-05-07T11:15:12.931Z,14.83
2023-05-07T11:16:12.699Z,14.91
2023-05-07T11:17:12.621Z,14.98
2023-05-07T11:18:12.632Z,15.01
2023-05-07T11:19:12.594Z,15.05
2023-05-07T11:20:12.674Z,15.08
2023-05-07T11:21:12.573Z,15.08
2023-05-07T11:22:12.556Z,15.19
2023-05-07T11:23:12.545Z,15.20
2023-05-07T11:24:12.536Z,15.21
2023-05-07T11:25:12.770Z,15.27
2023-05-07T11:26:12.606Z,15.39
2023-05-07T11:27:12.544Z,15.31
2023-05-07T11:28:12.498Z,15.36
2023-05-07T11:29:12.481Z,15.49
2023-05-07T11:30:12.477Z,15.63
2023-05-07T11:31:12.492Z,15.78
2023-05-07T11:32:12.500Z,15.86
2023-05-07T11:33:12.496Z,15.85
2023-05-07T11:34:12.422Z,15.92
2023-05-07T11:35:12.640Z,16.01
2023-05-07T11:36:12.405Z,16.07
2023-05-07T11:37:12.417Z,16.18
2023-05-07T11:38:12.391Z,16.30
2023-05-07T11:39:12.367Z,16.30
2023-05-07T11:40:12.456Z,16.33
2023-05-07T11:41:12.354Z,16.38
2023-05-07T11:42:12.345Z,16.50
2023-05-07T11:43:12.327Z,16.56
2023-05-07T11:44:12.329Z,16.59
2023-05-07T11:45:12.608Z,16.56
2023-05-07T11:46:12.378Z,16.60
2023-05-07T11:47:12.334Z,16.63
2023-05-07T11:48:12.293Z,16.49
2023-05-07T11:49:12.260Z,16.42
2023-05-07T11:50:12.253Z,16.41
2023-05-07T11:51:12.237Z,16.37
2023-05-07T11:52:12.238Z,16.23
2023-05-07T11:53:14.251Z,16.07
2023-05-07T11:54:12.224Z,15.93
2023-05-07T11:55:12.380Z,15.96
2023-05-07T11:56:12.191Z,16.14
2023-05-07T11:57:12.186Z,16.25
2023-05-07T11:58:12.167Z,16.35
2023-05-07T11:59:12.148Z,16.52
2023-05-07T12:00:12.137Z,16.62
2023-05-07T12:01:12.129Z,16.62
2023-05-07T12:02:12.165Z,16.63
2023-05-07T12:03:12.188Z,16.49
2023-05-07T12:04:12.263Z,16.48
2023-05-07T12:05:12.377Z,16.59
2023-05-07T12:06:12.084Z,16.80
2023-05-07T12:07:12.076Z,16.93
2023-05-07T12:08:12.063Z,16.93
2023-05-07T12:09:12.045Z,16.83
2023-05-07T12:10:12.053Z,16.80
2023-05-07T12:11:12.032Z,16.71
2023-05-07T12:12:12.038Z,16.74
2023-05-07T12:13:12.079Z,16.65
2023-05-07T12:14:12.489Z,16.48
2023-05-07T12:15:12.354Z,16.45
2023-05-07T12:16:18.023Z,16.41
2023-05-07T12:17:12.043Z,16.40
2023-05-07T12:18:12.047Z,16.31
2023-05-07T12:19:13.141Z,16.45
2023-05-07T12:20:11.949Z,16.45
2023-05-07T12:21:11.916Z,16.52
2023-05-07T12:22:11.934Z,16.60
2023-05-07T12:23:11.917Z,16.63
2023-05-07T12:24:11.900Z,16.50
2023-05-07T12:25:12.104Z,16.59
2023-05-07T12:26:11.876Z,16.70
2023-05-07T12:27:11.860Z,16.74
2023-05-07T12:28:11.875Z,16.83
2023-05-07T12:29:11.842Z,16.80
2023-05-07T12:30:11.847Z,16.77
2023-05-07T12:31:11.849Z,16.75
2023-05-07T12:32:11.835Z,16.86
2023-05-07T12:33:11.834Z,16.86
2023-05-07T12:34:11.790Z,16.90
2023-05-07T12:35:12.015Z,16.85
2023-05-07T12:36:11.778Z,16.85
2023-05-07T12:37:11.782Z,16.78
2023-05-07T12:38:11.750Z,16.85
2023-05-07T12:39:11.735Z,17.03
2023-05-07T12:40:11.721Z,17.22
2023-05-07T12:41:11.749Z,17.43
2023-05-07T12:42:11.724Z,17.54
2023-05-07T12:43:11.688Z,17.71
2023-05-07T12:44:11.682Z,17.91
2023-05-07T12:45:11.823Z,18.10
2023-05-07T12:46:11.685Z,18.34
2023-05-07T12:47:11.664Z,18.39
2023-05-07T12:48:11.674Z,18.39
2023-05-07T12:49:11.639Z,18.19
2023-05-07T12:50:11.640Z,18.07
2023-05-07T12:51:11.603Z,18.12
2023-05-07T12:52:11.597Z,18.22
2023-05-07T12:53:11.601Z,18.06
2023-05-07T12:54:11.608Z,17.82
2023-05-07T12:55:11.713Z,17.91
2023-05-07T12:56:11.560Z,17.94
2023-05-07T12:57:11.572Z,17.91